KEPH/EPH METAR and TAF weather

Enter ICAO airport designator
Station Type Date Time Source
KEPH METAR 2019/12/06 09:08 UTC NOAA

KEPH 060908Z AUTO 00000KT 3SM BR SCT003 OVC020 02/01 A3010 RMK AO2 T00170011


Station Type Date Time Source
KEPH Decoded METAR 2019/12/06 09:08 UTC NOAA

EPHRATA MUNICIPAL AIRPORT, WA, United States (KEPH) 47-18N 119-31W 383M
Dec 06, 2019 - 04:08 AM EST / 2019.12.06 0908 UTC
Wind: Calm:0
Visibility: 3 mile(s):0
Sky conditions: overcast
Weather: mist
Temperature: 35.1 F (1.7 C)
Dew Point: 34.0 F (1.1 C)
Relative Humidity: 95%
Pressure (altimeter): 30.1 in. Hg (1019 hPa)
ob: KEPH 060908Z AUTO 00000KT 3SM BR SCT003 OVC020 02/01 A3010 RMK AO2 T00170011
cycle: 9

Station Type Date Time Source
KEPH TAF UTC NOAA

Error!

Example: see airport list